Zook Spur, Iowa
Current Conditions -  °F | °C
As of 6:55 AM on Friday 24 Oct 2014 (Local Time) from KBNW Reporting Station
Moderate Fog Moderate Fog  
Wind Chill: 54°   Ceiling: 200
Heat Index: 54°   Visibility: 0mi
Dew Point: 54°   Wind: 7mph
Humidity: 100%   Direction: 180°S
Pressure: 29.96"   Gusts: NA
Location:  41.9049°N, 93.9596°W
Report Text: KBNW 241155Z AUTO 18006KT M1/4SM FG OVC002 12/12 A2996 RMK AO2
Loading
Personal Weather Stations






























Interactive Weather Map
Tropical Storm Tracking
New forecast layout! Learn more

10-Day Weather Forecast

Advertisements
Track Severe Weather on mobile